createdAt,value
2019-04-21T00:00:00.424Z,7.8867
2019-04-21T00:02:05.431Z,7.8867
2019-04-21T00:04:19.823Z,7.8665
2019-04-21T00:06:46.006Z,7.8867
2019-04-21T00:09:08.671Z,7.8564
2019-04-21T00:10:56.718Z,7.8665
2019-04-21T00:12:56.152Z,7.8665
2019-04-21T00:15:01.984Z,7.8867
2019-04-21T00:17:07.870Z,7.8867
2019-04-21T00:19:17.284Z,7.8967
2019-04-21T00:21:26.608Z,7.8867
2019-04-21T00:23:47.315Z,7.8564
2019-04-21T00:25:49.867Z,7.8162
2019-04-21T00:28:04.689Z,7.7658
2019-04-21T00:30:15.677Z,7.7356
2019-04-21T00:32:17.941Z,7.7054
2019-04-21T00:34:11.173Z,7.6852
2019-04-21T00:36:20.610Z,7.7054
2019-04-21T00:38:49.077Z,7.7155
2019-04-21T00:40:56.052Z,7.7457
2019-04-21T00:43:01.319Z,7.7859
2019-04-21T00:45:03.476Z,7.7960
2019-04-21T00:47:15.652Z,7.7960
2019-04-21T00:49:23.191Z,7.7960
2019-04-21T00:51:47.094Z,7.8464
2019-04-21T00:53:51.953Z,7.8262
2019-04-21T00:55:59.090Z,7.8262
2019-04-21T00:58:03.472Z,7.8262
2019-04-21T01:00:13.727Z,7.8262
2019-04-21T01:02:15.685Z,7.8162
2019-04-21T01:04:30.490Z,7.8162
2019-04-21T01:06:42.745Z,7.8262
2019-04-21T01:08:51.369Z,7.8262
2019-04-21T01:10:48.907Z,7.8162
2019-04-21T01:12:54.735Z,7.8262
2019-04-21T01:15:20.518Z,7.7859
2019-04-21T01:17:25.815Z,7.7356
2019-04-21T01:19:31.824Z,7.7054
2019-04-21T01:21:15.566Z,7.7054
2019-04-21T01:23:19.250Z,7.6752
2019-04-21T01:25:30.223Z,7.6651
2019-04-21T01:27:52.165Z,7.6349
2019-04-21T01:30:01.202Z,7.6450
2019-04-21T01:32:10.539Z,7.6450
2019-04-21T01:34:20.595Z,7.6047
2019-04-21T01:36:25.275Z,7.6047
2019-04-21T01:38:42.346Z,7.6047
2019-04-21T01:40:51.300Z,7.6047
2019-04-21T01:42:52.931Z,7.5845
2019-04-21T01:45:02.411Z,7.6349
2019-04-21T01:47:06.112Z,7.6752
2019-04-21T01:49:13.935Z,7.7054
2019-04-21T01:51:23.598Z,7.7356
2019-04-21T01:53:38.432Z,7.7457
2019-04-21T01:55:45.600Z,7.7960
2019-04-21T01:57:52.615Z,7.7859
2019-04-21T01:59:54.924Z,7.7457
2019-04-21T02:02:15.283Z,7.7155
2019-04-21T02:04:27.076Z,7.7356
2019-04-21T02:06:27.615Z,7.7356
2019-04-21T02:08:36.466Z,7.7457
2019-04-21T02:10:56.057Z,7.7658
2019-04-21T02:12:56.571Z,7.7457
2019-04-21T02:15:11.403Z,7.7356
2019-04-21T02:17:14.550Z,7.6752
2019-04-21T02:19:19.933Z,7.6349
2019-04-21T02:21:31.345Z,7.5845
2019-04-21T02:23:46.385Z,7.5543
2019-04-21T02:25:50.845Z,7.4939
2019-04-21T02:28:03.709Z,7.4939
2019-04-21T02:30:10.656Z,7.5040
2019-04-21T02:34:52.983Z,7.4234
2019-04-21T02:39:02.383Z,7.4536
2019-04-21T02:43:13.138Z,7.4335
2019-04-21T02:45:17.186Z,7.4234
2019-04-21T02:47:37.238Z,7.4033
2019-04-21T02:51:42.595Z,7.3227
2019-04-21T02:54:28.902Z,7.3227
2019-04-21T02:56:01.172Z,7.3227
2019-04-21T02:58:18.611Z,7.3126
2019-04-21T03:02:35.484Z,7.2421
2019-04-21T03:04:40.408Z,7.2421
2019-04-21T03:06:58.456Z,7.2421
2019-04-21T03:11:04.903Z,7.2119
2019-04-21T03:13:18.802Z,7.1616
2019-04-21T03:15:21.919Z,7.1313
2019-04-21T03:19:46.193Z,7.0508
2019-04-21T03:23:53.620Z,6.9199
2019-04-21T03:26:12.408Z,6.9199
2019-04-21T03:28:14.085Z,6.9400
2019-04-21T03:30:35.769Z,6.9199
2019-04-21T03:39:01.766Z,6.8896
2019-04-21T03:41:04.686Z,6.8393
2019-04-21T03:43:14.718Z,6.8695
2019-04-21T03:45:30.981Z,6.8393
2019-04-21T03:49:50.086Z,6.7889
2019-04-21T03:53:54.251Z,6.6379
2019-04-21T03:58:34.744Z,6.5472
2019-04-21T04:00:34.093Z,6.4767
2019-04-21T04:02:34.417Z,6.4062
2019-04-21T04:04:53.515Z,6.3559
2019-04-21T04:09:14.341Z,6.2653
2019-04-21T04:13:04.918Z,6.1746
2019-04-21T04:15:34.657Z,6.1545
2019-04-21T04:19:39.420Z,6.1847
2019-04-21T04:21:57.510Z,6.1746
2019-04-21T04:24:05.017Z,6.1746
2019-04-21T04:26:07.565Z,6.1545
2019-04-21T04:28:25.398Z,6.1746
2019-04-21T04:32:34.786Z,6.2149
2019-04-21T04:34:51.625Z,6.2955
2019-04-21T04:37:12.405Z,6.2955
2019-04-21T04:39:14.164Z,6.3055
2019-04-21T04:41:16.939Z,6.3660
2019-04-21T04:43:23.185Z,6.4062
2019-04-21T04:45:32.270Z,6.4566
2019-04-21T04:52:09.354Z,6.5472
2019-04-21T04:53:53.197Z,6.5775
2019-04-21T04:56:18.175Z,6.5875
2019-04-21T04:58:29.863Z,6.6379
2019-04-21T05:00:34.955Z,6.6983
2019-04-21T05:02:46.349Z,6.7386
2019-04-21T05:04:54.886Z,6.8091
2019-04-21T05:07:06.622Z,6.8695
2019-04-21T05:09:15.172Z,6.9199
2019-04-21T05:11:31.002Z,6.9904
2019-04-21T05:15:35.990Z,7.1515
2019-04-21T05:17:49.227Z,7.2421
2019-04-21T05:20:03.930Z,7.3428
2019-04-21T05:22:04.965Z,7.4234
2019-04-21T05:24:20.229Z,7.5040
2019-04-21T05:26:03.271Z,7.6047
2019-04-21T05:28:11.314Z,7.6852
2019-04-21T05:32:39.551Z,7.8665
2019-04-21T05:34:43.016Z,7.9773
2019-04-21T05:36:52.102Z,8.0679
2019-04-21T05:39:01.309Z,8.1888
2019-04-21T05:41:01.997Z,8.2895
2019-04-21T05:43:21.351Z,8.4103
2019-04-21T05:45:47.769Z,8.5010
2019-04-21T05:47:40.031Z,8.6319
2019-04-21T05:49:45.453Z,8.7628
2019-04-21T05:51:52.879Z,8.8937
2019-04-21T05:54:14.715Z,9.0247
2019-04-21T05:56:16.211Z,9.1656
2019-04-21T05:58:19.651Z,9.3469
2019-04-21T06:02:35.159Z,9.6793
2019-04-21T06:05:13.596Z,9.8303
2019-04-21T06:07:04.336Z,9.9310
2019-04-21T06:09:07.464Z,10.0821
2019-04-21T06:11:21.044Z,10.2634
2019-04-21T06:13:31.522Z,10.4749
2019-04-21T06:15:41.754Z,10.7568
2019-04-21T06:17:44.396Z,11.0690
2019-04-21T06:21:57.191Z,11.5826
2019-04-21T06:24:03.803Z,11.8344
2019-04-21T06:26:44.813Z,12.0157
2019-04-21T06:28:28.659Z,12.0862
2019-04-21T06:30:45.509Z,12.1667
2019-04-21T06:32:50.508Z,12.2372
2019-04-21T06:35:01.913Z,12.3380
2019-04-21T06:37:07.836Z,12.4991
2019-04-21T06:39:28.319Z,12.6501
2019-04-21T06:41:21.120Z,12.8214
2019-04-21T06:43:33.503Z,12.9623
2019-04-21T06:45:36.690Z,13.0731
2019-04-21T06:47:50.770Z,13.1940
2019-04-21T06:49:50.845Z,13.3551
2019-04-21T06:52:08.448Z,13.5968
2019-04-21T06:54:09.463Z,13.7881
2019-04-21T06:56:24.141Z,13.9594
2019-04-21T06:58:27.856Z,14.1003
2019-04-21T07:00:30.558Z,14.2413
2019-04-21T07:02:54.903Z,14.2514
2019-04-21T07:04:56.105Z,14.1809
2019-04-21T07:07:03.171Z,14.1406
2019-04-21T07:11:14.872Z,14.1205
2019-04-21T07:13:27.524Z,14.1507
2019-04-21T07:15:36.937Z,14.2010
2019-04-21T07:17:43.227Z,14.2010
2019-04-21T07:19:55.965Z,14.2715
2019-04-21T07:22:03.104Z,14.3622
2019-04-21T07:24:14.767Z,14.4226
2019-04-21T07:26:21.792Z,14.4730
2019-04-21T07:28:31.956Z,14.5233
2019-04-21T07:30:37.083Z,14.5837
2019-04-21T07:32:47.461Z,14.6442
2019-04-21T07:34:57.376Z,14.7549
2019-04-21T07:37:17.309Z,14.8355
2019-04-21T07:39:10.340Z,14.9161
2019-04-21T07:41:16.183Z,14.9866
2019-04-21T07:43:28.618Z,15.0067
2019-04-21T07:45:35.075Z,15.0067
2019-04-21T07:47:50.689Z,15.0067
2019-04-21T07:50:00.966Z,15.0067
2019-04-21T07:52:05.993Z,15.0168
2019-04-21T07:54:18.341Z,15.0671
2019-04-21T07:56:10.750Z,15.1074
2019-04-21T07:58:26.619Z,15.2081
2019-04-21T08:00:45.421Z,15.3088
2019-04-21T08:02:49.571Z,15.4095
2019-04-21T08:05:02.378Z,15.4700
2019-04-21T08:07:06.341Z,15.5908
2019-04-21T08:09:12.516Z,15.8023
2019-04-21T08:11:22.524Z,15.9634
2019-04-21T08:13:41.528Z,16.0944
2019-04-21T08:15:39.502Z,16.2454
2019-04-21T08:17:49.210Z,16.4468
2019-04-21T08:19:55.614Z,16.6785
2019-04-21T08:24:17.230Z,17.2525
2019-04-21T08:26:27.366Z,17.5546
2019-04-21T08:28:35.485Z,17.8568
2019-04-21T08:30:37.823Z,18.0984
2019-04-21T08:33:04.318Z,18.2596
2019-04-21T08:35:08.805Z,18.4106
2019-04-21T08:37:08.629Z,18.6020
2019-04-21T08:39:13.209Z,18.8840
2019-04-21T08:41:23.075Z,19.2062
2019-04-21T08:43:42.740Z,19.4379
2019-04-21T08:45:45.003Z,19.6594
2019-04-21T08:47:55.339Z,19.9112
2019-04-21T08:50:00.342Z,20.1025
2019-04-21T08:52:16.235Z,20.4147
2019-04-21T08:54:21.853Z,20.7672
2019-04-21T08:56:28.759Z,21.2909
2019-04-21T09:00:48.813Z,21.9858
2019-04-21T09:03:00.291Z,22.1469
2019-04-21T09:04:59.179Z,22.3483
2019-04-21T09:07:22.652Z,22.5699
2019-04-21T09:09:24.484Z,22.7209
2019-04-21T09:11:22.646Z,22.7914
2019-04-21T09:13:38.416Z,22.8015
2019-04-21T09:15:41.603Z,22.8317
2019-04-21T09:17:44.565Z,22.9224
2019-04-21T09:20:07.854Z,22.9526
2019-04-21T09:22:05.759Z,22.8317
2019-04-21T09:24:22.036Z,22.6706
2019-04-21T09:26:37.019Z,22.3685
2019-04-21T09:28:32.215Z,22.0563
2019-04-21T09:30:30.733Z,21.7743
2019-04-21T09:32:36.706Z,21.5326
2019-04-21T09:34:44.187Z,21.2405
2019-04-21T09:36:54.486Z,21.0693
2019-04-21T09:39:09.413Z,21.0089
2019-04-21T09:41:15.733Z,21.0291
2019-04-21T09:43:25.833Z,20.9888
2019-04-21T09:45:26.457Z,20.9082
2019-04-21T09:47:40.508Z,20.9183
2019-04-21T09:49:40.093Z,20.9082
2019-04-21T09:51:45.953Z,20.8478
2019-04-21T09:53:57.215Z,20.8176
2019-04-21T09:56:04.626Z,20.7874
2019-04-21T09:58:16.735Z,20.8176
2019-04-21T10:00:22.427Z,20.8780
2019-04-21T10:02:41.361Z,20.9888
2019-04-21T10:04:37.862Z,21.0895
2019-04-21T10:06:41.402Z,21.1398
2019-04-21T10:08:48.477Z,21.2405
2019-04-21T10:10:54.609Z,21.3110
2019-04-21T10:12:58.098Z,21.3815
2019-04-21T10:15:02.113Z,21.4218
2019-04-21T10:17:06.364Z,21.4621
2019-04-21T10:19:11.026Z,21.5628
2019-04-21T10:21:15.465Z,21.6837
2019-04-21T10:23:18.962Z,21.7743
2019-04-21T10:25:22.784Z,21.8246
2019-04-21T10:27:27.309Z,21.8246
2019-04-21T10:29:32.974Z,21.7743
2019-04-21T10:31:38.717Z,21.7944
2019-04-21T10:33:42.201Z,21.7743
2019-04-21T10:35:46.787Z,21.7944
2019-04-21T10:38:03.403Z,21.8347
2019-04-21T10:40:00.131Z,21.9354
2019-04-21T10:42:03.632Z,21.9958
2019-04-21T10:44:07.240Z,22.0462
2019-04-21T10:46:10.791Z,22.0261
2019-04-21T10:48:14.672Z,21.9354
2019-04-21T10:50:18.445Z,21.9052
2019-04-21T10:52:22.889Z,21.9153
2019-04-21T10:54:37.870Z,21.9354
2019-04-21T10:56:41.396Z,22.0160
2019-04-21T10:58:44.566Z,22.1368
2019-04-21T11:00:48.393Z,22.1973
2019-04-21T11:02:52.840Z,22.2375
2019-04-21T11:04:56.708Z,22.2678
2019-04-21T11:07:07.000Z,22.3282
2019-04-21T11:09:10.646Z,22.3685
2019-04-21T11:11:14.267Z,22.3987
2019-04-21T11:13:16.684Z,22.4591
2019-04-21T11:15:21.206Z,22.5195
2019-04-21T11:17:25.867Z,22.6102
2019-04-21T11:19:30.589Z,22.6706
2019-04-21T11:21:34.633Z,22.7310
2019-04-21T11:23:38.854Z,22.8317
2019-04-21T11:25:42.273Z,22.8821
2019-04-21T11:27:47.066Z,22.9224
2019-04-21T11:29:51.695Z,22.9123
2019-04-21T11:31:56.926Z,22.9526
2019-04-21T11:34:00.882Z,22.9727
2019-04-21T11:36:04.518Z,22.9526
2019-04-21T11:38:16.955Z,22.9526
2019-04-21T11:40:19.764Z,23.0130
2019-04-21T11:42:25.765Z,23.0936
2019-04-21T11:44:30.954Z,23.1641
2019-04-21T11:46:34.474Z,23.1943
2019-04-21T11:48:39.865Z,23.1741
2019-04-21T11:50:44.092Z,23.1943
2019-04-21T11:52:47.530Z,23.2043
2019-04-21T11:54:51.009Z,23.1943
2019-04-21T11:56:55.314Z,23.2043
2019-04-21T11:58:59.644Z,23.2346
2019-04-21T12:01:03.813Z,23.2748
2019-04-21T12:03:12.401Z,23.3755
2019-04-21T12:05:19.357Z,23.5367
2019-04-21T12:07:23.474Z,23.7482
2019-04-21T12:09:27.770Z,24.0503
2019-04-21T12:11:31.969Z,24.3021
2019-04-21T12:13:36.210Z,24.5538
2019-04-21T12:15:40.903Z,24.7955
2019-04-21T12:17:45.830Z,25.0171
2019-04-21T12:19:50.427Z,25.3192
2019-04-21T12:22:05.290Z,25.5811
2019-04-21T12:24:03.601Z,25.8328
2019-04-21T12:26:07.353Z,25.9940
2019-04-21T12:28:12.156Z,26.1349
2019-04-21T12:30:15.819Z,26.2256
2019-04-21T12:32:20.217Z,26.3162
2019-04-21T12:34:24.255Z,26.3968
2019-04-21T12:36:27.649Z,26.4270
2019-04-21T12:38:40.959Z,26.3565
2019-04-21T12:40:52.765Z,26.1954
2019-04-21T12:42:56.817Z,25.9839
2019-04-21T12:45:01.449Z,25.8026
2019-04-21T12:47:05.825Z,25.5811
2019-04-21T12:49:09.761Z,25.3595
2019-04-21T12:51:13.616Z,25.1984
2019-04-21T12:53:17.850Z,25.0473
2019-04-21T12:55:23.952Z,24.9063
2019-04-21T12:57:33.248Z,24.7754
2019-04-21T12:59:37.784Z,24.7250
2019-04-21T13:01:43.128Z,24.6948
2019-04-21T13:03:47.947Z,24.6848
2019-04-21T13:05:51.761Z,24.6747
2019-04-21T13:07:56.211Z,24.6948
2019-04-21T13:10:02.244Z,24.7150
2019-04-21T13:12:06.867Z,24.6848
2019-04-21T13:14:11.488Z,24.6545
2019-04-21T13:16:15.650Z,24.6042
2019-04-21T13:18:20.566Z,24.5740
2019-04-21T13:20:23.332Z,24.5538
2019-04-21T13:22:27.973Z,24.5538
2019-04-21T13:24:31.823Z,24.6143
2019-04-21T13:26:42.951Z,24.6747
2019-04-21T13:28:44.717Z,24.7754
2019-04-21T13:30:48.628Z,24.8660
2019-04-21T13:32:53.456Z,24.9466
2019-04-21T13:34:57.117Z,25.0171
2019-04-21T13:37:01.571Z,25.0171
2019-04-21T13:39:38.179Z,24.9768
2019-04-21T13:41:31.401Z,24.8962
2019-04-21T13:43:23.590Z,24.7250
2019-04-21T13:45:27.813Z,24.5538
2019-04-21T13:47:32.541Z,24.4229
2019-04-21T13:49:37.127Z,24.3423
2019-04-21T13:51:41.624Z,24.2819
2019-04-21T13:53:45.972Z,24.2517
2019-04-21T13:55:50.773Z,24.2114
2019-04-21T13:57:54.526Z,24.1510
2019-04-21T13:59:57.559Z,24.0906
2019-04-21T14:02:02.569Z,24.0805
2019-04-21T14:04:07.232Z,24.0604
2019-04-21T14:06:12.025Z,24.0906
2019-04-21T14:08:15.624Z,24.0906
2019-04-21T14:10:19.884Z,24.1309
2019-04-21T14:12:23.463Z,24.1208
2019-04-21T14:14:28.298Z,24.1006
2019-04-21T14:16:32.430Z,24.0906
2019-04-21T14:18:36.602Z,24.0604
2019-04-21T14:20:40.164Z,23.9999
2019-04-21T14:22:44.230Z,23.9395
2019-04-21T14:24:48.348Z,23.9093
2019-04-21T14:26:54.178Z,23.8791
2019-04-21T14:28:58.880Z,23.8690
2019-04-21T14:31:02.376Z,23.7985
2019-04-21T14:33:05.796Z,23.7180
2019-04-21T14:35:09.192Z,23.6777
2019-04-21T14:37:13.028Z,23.6273
2019-04-21T14:39:16.750Z,23.5770
2019-04-21T14:41:22.203Z,23.5065
2019-04-21T14:43:25.941Z,23.4662
2019-04-21T14:45:30.413Z,23.3957
2019-04-21T14:47:35.067Z,23.3151
2019-04-21T14:49:39.428Z,23.2547
2019-04-21T14:51:43.192Z,23.2245
2019-04-21T14:53:47.720Z,23.1943
2019-04-21T14:55:51.275Z,23.2748
2019-04-21T14:57:54.936Z,23.4259
2019-04-21T14:59:58.513Z,23.6575
2019-04-21T15:02:02.017Z,23.8992
2019-04-21T15:04:05.947Z,24.1309
2019-04-21T15:06:09.453Z,24.3524
2019-04-21T15:08:13.148Z,24.5538
2019-04-21T15:10:21.752Z,24.6848
2019-04-21T15:12:25.785Z,24.8056
2019-04-21T15:14:29.974Z,24.8660
2019-04-21T15:16:33.435Z,24.8761
2019-04-21T15:18:36.917Z,24.8962
2019-04-21T15:20:40.516Z,24.8257
2019-04-21T15:22:44.280Z,24.7552
2019-04-21T15:24:48.158Z,24.6445
2019-04-21T15:26:53.021Z,24.5538
2019-04-21T15:28:57.129Z,24.5337
2019-04-21T15:31:02.747Z,24.4733
2019-04-21T15:33:06.491Z,24.4330
2019-04-21T15:35:11.056Z,24.3423
2019-04-21T15:37:15.705Z,24.3121
2019-04-21T15:39:19.544Z,24.3121
2019-04-21T15:41:24.660Z,24.3524
2019-04-21T15:43:28.610Z,24.4330
2019-04-21T15:45:32.607Z,24.4733
2019-04-21T15:47:36.117Z,24.5337
2019-04-21T15:49:49.906Z,24.6143
2019-04-21T15:51:49.589Z,24.6948
2019-04-21T15:53:53.043Z,24.7653
2019-04-21T15:55:57.015Z,24.8056
2019-04-21T15:58:00.649Z,24.7955
2019-04-21T16:00:04.686Z,24.6948
2019-04-21T16:02:10.501Z,24.6143
2019-04-21T16:04:14.826Z,24.5337
2019-04-21T16:06:19.447Z,24.4733
2019-04-21T16:08:22.882Z,24.3423
2019-04-21T16:10:37.385Z,24.1812
2019-04-21T16:12:36.067Z,24.0302
2019-04-21T16:14:40.698Z,23.7985
2019-04-21T16:16:45.411Z,23.5367
2019-04-21T16:18:50.011Z,23.2043
2019-04-21T16:20:53.740Z,22.9123
2019-04-21T16:22:57.175Z,22.6102
2019-04-21T16:25:03.202Z,22.2778
2019-04-21T16:27:09.155Z,22.0261
2019-04-21T16:29:15.484Z,21.8448
2019-04-21T16:31:20.318Z,21.7441
2019-04-21T16:33:25.053Z,21.7239
2019-04-21T16:35:29.569Z,21.7441
2019-04-21T16:37:33.075Z,21.7441
2019-04-21T16:39:37.650Z,21.7239
2019-04-21T16:41:42.412Z,21.6837
2019-04-21T16:43:47.136Z,21.6736
2019-04-21T16:45:51.172Z,21.6534
2019-04-21T16:47:57.370Z,21.6434
2019-04-21T16:50:01.623Z,21.6132
2019-04-21T16:52:05.750Z,21.5930
2019-04-21T16:54:10.220Z,21.5427
2019-04-21T16:56:15.180Z,21.5024
2019-04-21T16:58:23.413Z,21.4017
2019-04-21T17:00:38.332Z,21.3110
2019-04-21T17:02:38.602Z,21.2103
2019-04-21T17:04:42.654Z,21.0895
2019-04-21T17:06:47.151Z,20.9384
2019-04-21T17:08:52.652Z,20.8176
2019-04-21T17:11:06.240Z,20.6866
2019-04-21T17:13:06.097Z,20.5457
2019-04-21T17:15:29.387Z,20.4248
2019-04-21T17:17:44.629Z,20.2335
2019-04-21T17:19:33.416Z,20.0220
2019-04-21T17:21:37.592Z,19.7803
2019-04-21T17:23:41.056Z,19.5386
2019-04-21T17:25:45.325Z,19.2264
2019-04-21T17:27:49.050Z,18.9444
2019-04-21T17:29:53.064Z,18.6624
2019-04-21T17:31:57.385Z,18.3603
2019-04-21T17:34:09.607Z,18.0783
2019-04-21T17:36:11.220Z,17.8064
2019-04-21T17:38:16.322Z,17.5848
2019-04-21T17:40:21.766Z,17.3331
2019-04-21T17:42:34.504Z,17.0612
2019-04-21T17:44:35.067Z,16.8195
2019-04-21T17:46:46.092Z,16.5677
2019-04-21T17:48:47.225Z,16.3058
2019-04-21T17:50:51.541Z,16.0541
2019-04-21T17:53:00.574Z,15.7822
2019-04-21T17:55:10.283Z,15.5304
2019-04-21T17:57:32.302Z,15.2686
2019-04-21T17:59:51.245Z,14.9866
2019-04-21T18:01:47.467Z,14.7549
2019-04-21T18:04:07.785Z,14.4730
2019-04-21T18:05:59.538Z,14.2212
2019-04-21T18:08:21.409Z,13.9191
2019-04-21T18:10:24.155Z,13.6673
2019-04-21T18:12:32.198Z,13.4357
2019-04-21T18:14:22.317Z,13.2242
2019-04-21T18:16:35.642Z,12.9724
2019-04-21T18:18:34.984Z,12.7509
2019-04-21T18:20:39.839Z,12.5696
2019-04-21T18:22:47.924Z,12.3782
2019-04-21T18:24:59.308Z,12.1869
2019-04-21T18:27:04.316Z,12.0358
2019-04-21T18:29:11.733Z,11.8546
2019-04-21T18:31:16.526Z,11.7337
2019-04-21T18:33:25.328Z,11.5726
2019-04-21T18:35:35.435Z,11.4316
2019-04-21T18:37:43.939Z,11.2704
2019-04-21T18:39:57.549Z,11.1093
2019-04-21T18:42:10.920Z,10.9381
2019-04-21T18:44:29.110Z,10.7870
2019-04-21T18:46:33.150Z,10.6662
2019-04-21T18:48:31.523Z,10.5554
2019-04-21T18:50:39.117Z,10.4446
2019-04-21T18:52:55.579Z,10.3036
2019-04-21T18:55:01.540Z,10.2332
2019-04-21T18:57:04.509Z,10.1526
2019-04-21T18:59:04.601Z,10.0720
2019-04-21T19:01:14.830Z,10.0116
2019-04-21T19:03:25.273Z,9.9109
2019-04-21T19:05:28.340Z,9.8605
2019-04-21T19:07:52.012Z,9.8102
2019-04-21T19:12:12.697Z,9.7095
2019-04-21T19:16:33.673Z,9.7095
2019-04-21T19:19:05.799Z,9.7800
2019-04-21T19:20:44.389Z,9.7900
2019-04-21T19:22:52.455Z,9.7900
2019-04-21T19:25:08.543Z,9.7900
2019-04-21T19:29:23.925Z,9.7900
2019-04-21T19:31:31.600Z,9.8605
2019-04-21T19:33:33.511Z,9.8706
2019-04-21T19:35:27.700Z,9.8303
2019-04-21T19:37:40.146Z,9.7598
2019-04-21T19:39:56.163Z,9.7095
2019-04-21T19:42:00.567Z,9.6088
2019-04-21T19:44:14.705Z,9.5786
2019-04-21T19:46:26.424Z,9.5383
2019-04-21T19:50:46.730Z,9.4275
2019-04-21T19:52:46.650Z,9.3973
2019-04-21T19:54:48.329Z,9.3469
2019-04-21T19:56:55.396Z,9.3469
2019-04-21T19:58:59.464Z,9.3268
2019-04-21T20:01:03.522Z,9.3066
2019-04-21T20:03:08.320Z,9.2361
2019-04-21T20:05:20.444Z,9.1959
2019-04-21T20:07:34.177Z,9.1656
2019-04-21T20:09:45.239Z,9.1354
2019-04-21T20:11:53.523Z,9.2261
2019-04-21T20:14:32.588Z,9.3066
2019-04-21T20:16:15.089Z,9.3469
2019-04-21T20:18:15.281Z,9.4174
2019-04-21T20:20:11.199Z,9.4980
2019-04-21T20:22:14.820Z,9.5282
2019-04-21T20:24:23.284Z,9.5786
2019-04-21T20:26:30.416Z,9.6591
2019-04-21T20:28:46.811Z,9.7195
2019-04-21T20:31:06.779Z,9.7498
2019-04-21T20:33:38.133Z,9.7598
2019-04-21T20:35:28.463Z,9.7800
2019-04-21T20:37:32.062Z,9.8303
2019-04-21T20:39:25.395Z,9.8605
2019-04-21T20:41:41.993Z,9.8102
2019-04-21T20:44:07.223Z,9.7598
2019-04-21T20:46:02.352Z,9.7397
2019-04-21T20:47:59.918Z,9.6893
2019-04-21T20:50:18.414Z,9.6088
2019-04-21T20:52:35.737Z,9.5383
2019-04-21T20:54:37.079Z,9.4678
2019-04-21T20:56:49.642Z,9.3771
2019-04-21T20:58:55.457Z,9.3066
2019-04-21T21:01:20.764Z,9.2261
2019-04-21T21:03:18.123Z,9.1455
2019-04-21T21:05:24.687Z,9.0448
2019-04-21T21:07:52.879Z,8.9642
2019-04-21T21:12:04.302Z,8.8736
2019-04-21T21:13:59.169Z,8.8132
2019-04-21T21:16:13.736Z,8.7729
2019-04-21T21:18:26.202Z,8.7427
2019-04-21T21:20:27.554Z,8.7326
2019-04-21T21:22:29.385Z,8.6823
2019-04-21T21:24:48.966Z,8.6520
2019-04-21T21:26:51.689Z,8.6218
2019-04-21T21:28:52.009Z,8.5916
2019-04-21T21:31:07.321Z,8.5815
2019-04-21T21:33:17.245Z,8.5815
2019-04-21T21:35:18.968Z,8.5312
2019-04-21T21:37:44.339Z,8.5010
2019-04-21T21:39:51.955Z,8.4506
2019-04-21T21:41:45.202Z,8.4003
2019-04-21T21:44:04.126Z,8.3398
2019-04-21T21:46:10.788Z,8.2895
2019-04-21T21:48:26.356Z,8.2593
2019-04-21T21:50:25.099Z,8.1989
2019-04-21T21:52:43.009Z,8.1888
2019-04-21T21:54:37.854Z,8.1787
2019-04-21T21:56:42.576Z,8.1586
2019-04-21T21:58:48.422Z,8.1485
2019-04-21T22:00:58.467Z,8.0780
2019-04-21T22:03:10.480Z,8.0478
2019-04-21T22:05:16.538Z,8.0377
2019-04-21T22:07:23.927Z,8.0075
2019-04-21T22:09:28.353Z,7.9672
2019-04-21T22:11:31.845Z,7.9672
2019-04-21T22:13:43.645Z,7.9269
2019-04-21T22:15:50.551Z,7.9269
2019-04-21T22:18:14.635Z,7.9269
2019-04-21T22:20:20.169Z,7.9269
2019-04-21T22:22:23.290Z,7.9169
2019-04-21T22:24:34.922Z,7.8967
2019-04-21T22:26:29.199Z,7.8665
2019-04-21T22:28:33.769Z,7.8262
2019-04-21T22:30:43.838Z,7.7859
2019-04-21T22:32:53.966Z,7.7155
2019-04-21T22:34:59.896Z,7.6852
2019-04-21T22:37:21.144Z,7.6450
2019-04-21T22:39:30.701Z,7.6349
2019-04-21T22:41:30.279Z,7.6450
2019-04-21T22:43:36.435Z,7.6349
2019-04-21T22:45:38.373Z,7.6349
2019-04-21T22:47:42.994Z,7.5845
2019-04-21T22:49:48.660Z,7.5745
2019-04-21T22:51:52.086Z,7.5342
2019-04-21T22:53:59.480Z,7.5241
2019-04-21T22:56:12.529Z,7.5040
2019-04-21T22:58:15.849Z,7.5040
2019-04-21T23:00:22.288Z,7.4838
2019-04-21T23:02:30.508Z,7.4335
2019-04-21T23:04:41.729Z,7.3730
2019-04-21T23:06:44.473Z,7.3227
2019-04-21T23:08:49.206Z,7.3126
2019-04-21T23:11:00.921Z,7.3428
2019-04-21T23:13:07.695Z,7.3730
2019-04-21T23:15:13.940Z,7.3730
2019-04-21T23:17:38.962Z,7.3428
2019-04-21T23:19:42.195Z,7.3428
2019-04-21T23:21:57.720Z,7.3126
2019-04-21T23:24:04.376Z,7.3126
2019-04-21T23:26:14.557Z,7.3026
2019-04-21T23:28:17.165Z,7.3026
2019-04-21T23:32:34.131Z,7.2018
2019-04-21T23:34:36.224Z,7.1313
2019-04-21T23:36:48.288Z,7.0911
2019-04-21T23:38:49.829Z,7.0306
2019-04-21T23:40:59.932Z,6.9904
2019-04-21T23:43:10.685Z,6.9803
2019-04-21T23:45:14.124Z,6.9702
2019-04-21T23:47:36.834Z,6.9400
2019-04-21T23:49:40.466Z,6.9199
2019-04-21T23:51:47.038Z,6.8896
2019-04-21T23:53:47.267Z,6.9098
2019-04-21T23:55:50.704Z,6.8896
2019-04-21T23:58:05.016Z,6.8896
